sensor_id;sensor_type;location;lat;lon;timestamp;temperature;humidity
14119;DHT22;7138;49.246;9.100;2023-03-15T00:02:07;1.40;99.90
14119;DHT22;7138;49.246;9.100;2023-03-15T00:04:33;1.50;99.90
14119;DHT22;7138;49.246;9.100;2023-03-15T00:06:59;1.50;99.90
14119;DHT22;7138;49.246;9.100;2023-03-15T00:09:26;1.60;99.90
14119;DHT22;7138;49.246;9.100;2023-03-15T00:11:52;1.60;99.90
14119;DHT22;7138;49.246;9.100;2023-03-15T00:14:21;1.60;99.90
14119;DHT22;7138;49.246;9.100;2023-03-15T00:16:47;1.60;99.90
14119;DHT22;7138;49.246;9.100;2023-03-15T00:19:13;1.70;99.90
14119;DHT22;7138;49.246;9.100;2023-03-15T00:21:39;1.70;99.90
14119;DHT22;7138;49.246;9.100;2023-03-15T00:24:07;1.70;99.90
14119;DHT22;7138;49.246;9.100;2023-03-15T00:26:35;1.70;99.90
14119;DHT22;7138;49.246;9.100;2023-03-15T00:29:01;1.60;99.90
14119;DHT22;7138;49.246;9.100;2023-03-15T00:31:27;1.60;99.90
14119;DHT22;7138;49.246;9.100;2023-03-15T00:33:53;1.60;99.90
14119;DHT22;7138;49.246;9.100;2023-03-15T00:36:19;1.60;99.90
14119;DHT22;7138;49.246;9.100;2023-03-15T00:38:48;1.50;99.90
14119;DHT22;7138;49.246;9.100;2023-03-15T00:41:16;1.50;99.90
14119;DHT22;7138;49.246;9.100;2023-03-15T00:43:44;1.50;99.90
14119;DHT22;7138;49.246;9.100;2023-03-15T00:46:10;1.40;99.90
14119;DHT22;7138;49.246;9.100;2023-03-15T00:48:36;1.40;99.90
14119;DHT22;7138;49.246;9.100;2023-03-15T00:51:03;1.40;99.90
14119;DHT22;7138;49.246;9.100;2023-03-15T00:53:30;1.30;99.90
14119;DHT22;7138;49.246;9.100;2023-03-15T00:55:55;1.30;99.90
14119;DHT22;7138;49.246;9.100;2023-03-15T00:58:21;1.30;99.90
14119;DHT22;7138;49.246;9.100;2023-03-15T01:00:48;1.20;99.90
14119;DHT22;7138;49.246;9.100;2023-03-15T01:03:14;1.20;99.90
14119;DHT22;7138;49.246;9.100;2023-03-15T01:05:39;1.20;99.90
14119;DHT22;7138;49.246;9.100;2023-03-15T01:08:05;1.10;99.90
14119;DHT22;7138;49.246;9.100;2023-03-15T01:10:33;1.10;99.90
14119;DHT22;7138;49.246;9.100;2023-03-15T01:12:59;1.10;99.90
14119;DHT22;7138;49.246;9.100;2023-03-15T01:15:24;1.10;99.90
14119;DHT22;7138;49.246;9.100;2023-03-15T01:17:51;1.10;99.90
14119;DHT22;7138;49.246;9.100;2023-03-15T01:20:17;1.10;99.90
14119;DHT22;7138;49.246;9.100;2023-03-15T01:22:43;1.10;99.90
14119;DHT22;7138;49.246;9.100;2023-03-15T01:25:09;1.10;99.90
14119;DHT22;7138;49.246;9.100;2023-03-15T01:27:35;1.00;99.90
14119;DHT22;7138;49.246;9.100;2023-03-15T01:30:00;1.00;99.90
14119;DHT22;7138;49.246;9.100;2023-03-15T01:32:26;1.00;99.90
14119;DHT22;7138;49.246;9.100;2023-03-15T01:34:53;0.90;99.90
14119;DHT22;7138;49.246;9.100;2023-03-15T01:37:19;0.90;99.90
14119;DHT22;7138;49.246;9.100;2023-03-15T01:39:49;0.90;99.90
14119;DHT22;7138;49.246;9.100;2023-03-15T01:42:14;0.90;99.90
14119;DHT22;7138;49.246;9.100;2023-03-15T01:44:47;0.90;99.90
14119;DHT22;7138;49.246;9.100;2023-03-15T01:47:14;0.80;99.90
14119;DHT22;7138;49.246;9.100;2023-03-15T01:49:40;0.80;99.90
14119;DHT22;7138;49.246;9.100;2023-03-15T01:52:10;0.80;99.90
14119;DHT22;7138;49.246;9.100;2023-03-15T01:54:38;0.80;99.90
14119;DHT22;7138;49.246;9.100;2023-03-15T01:57:08;0.70;99.90
14119;DHT22;7138;49.246;9.100;2023-03-15T01:59:38;0.70;99.90
14119;DHT22;7138;49.246;9.100;2023-03-15T02:02:06;0.70;99.90
14119;DHT22;7138;49.246;9.100;2023-03-15T02:04:33;0.70;99.90
14119;DHT22;7138;49.246;9.100;2023-03-15T02:07:03;0.70;99.90
14119;DHT22;7138;49.246;9.100;2023-03-15T02:09:33;0.70;99.90
14119;DHT22;7138;49.246;9.100;2023-03-15T02:12:06;0.70;99.90
14119;DHT22;7138;49.246;9.100;2023-03-15T02:14:33;0.70;99.90
14119;DHT22;7138;49.246;9.100;2023-03-15T02:16:59;0.70;99.90
14119;DHT22;7138;49.246;9.100;2023-03-15T02:19:32;0.70;99.90
14119;DHT22;7138;49.246;9.100;2023-03-15T02:22:09;0.60;99.90
14119;DHT22;7138;49.246;9.100;2023-03-15T02:24:45;0.60;99.90
14119;DHT22;7138;49.246;9.100;2023-03-15T02:27:20;0.60;99.90
14119;DHT22;7138;49.246;9.100;2023-03-15T02:29:50;0.60;99.90
14119;DHT22;7138;49.246;9.100;2023-03-15T02:32:16;0.40;99.90
14119;DHT22;7138;49.246;9.100;2023-03-15T02:34:42;0.50;99.90
14119;DHT22;7138;49.246;9.100;2023-03-15T02:37:08;0.50;99.90
14119;DHT22;7138;49.246;9.100;2023-03-15T02:39:33;0.40;99.90
14119;DHT22;7138;49.246;9.100;2023-03-15T02:41:59;0.30;99.90
14119;DHT22;7138;49.246;9.100;2023-03-15T02:44:28;0.20;99.90
14119;DHT22;7138;49.246;9.100;2023-03-15T02:46:58;0.20;99.90
14119;DHT22;7138;49.246;9.100;2023-03-15T02:49:26;0.10;99.90
14119;DHT22;7138;49.246;9.100;2023-03-15T02:51:55;0.10;99.90
14119;DHT22;7138;49.246;9.100;2023-03-15T02:54:21;0.10;99.90
14119;DHT22;7138;49.246;9.100;2023-03-15T02:56:47;0.00;99.90
14119;DHT22;7138;49.246;9.100;2023-03-15T02:59:12;0.00;99.90
14119;DHT22;7138;49.246;9.100;2023-03-15T03:01:39;-0.10;99.90
14119;DHT22;7138;49.246;9.100;2023-03-15T03:04:05;0.00;99.90
14119;DHT22;7138;49.246;9.100;2023-03-15T03:06:31;0.00;99.90
14119;DHT22;7138;49.246;9.100;2023-03-15T03:08:57;0.10;99.90
14119;DHT22;7138;49.246;9.100;2023-03-15T03:11:23;0.10;99.90
14119;DHT22;7138;49.246;9.100;2023-03-15T03:13:48;0.00;99.90
14119;DHT22;7138;49.246;9.100;2023-03-15T03:16:14;0.00;99.90
14119;DHT22;7138;49.246;9.100;2023-03-15T03:18:41;0.00;99.90
14119;DHT22;7138;49.246;9.100;2023-03-15T03:21:06;-0.10;99.90
14119;DHT22;7138;49.246;9.100;2023-03-15T03:23:32;-0.10;99.90
14119;DHT22;7138;49.246;9.100;2023-03-15T03:25:59;-0.10;99.90
14119;DHT22;7138;49.246;9.100;2023-03-15T03:28:26;0.00;99.90
14119;DHT22;7138;49.246;9.100;2023-03-15T03:30:54;0.00;99.90
14119;DHT22;7138;49.246;9.100;2023-03-15T03:33:20;0.00;99.90
14119;DHT22;7138;49.246;9.100;2023-03-15T03:35:48;0.00;99.90
14119;DHT22;7138;49.246;9.100;2023-03-15T03:38:14;0.00;99.90
14119;DHT22;7138;49.246;9.100;2023-03-15T03:40:40;0.00;99.90
14119;DHT22;7138;49.246;9.100;2023-03-15T03:43:07;0.00;99.90
14119;DHT22;7138;49.246;9.100;2023-03-15T03:45:33;-0.10;99.90
14119;DHT22;7138;49.246;9.100;2023-03-15T03:47:59;0.00;99.90
14119;DHT22;7138;49.246;9.100;2023-03-15T03:50:25;0.00;99.90
14119;DHT22;7138;49.246;9.100;2023-03-15T03:52:52;-0.10;99.90
14119;DHT22;7138;49.246;9.100;2023-03-15T03:55:18;-0.20;99.90
14119;DHT22;7138;49.246;9.100;2023-03-15T03:57:49;-0.10;99.90
14119;DHT22;7138;49.246;9.100;2023-03-15T04:00:15;-0.20;99.90
14119;DHT22;7138;49.246;9.100;2023-03-15T04:02:42;-0.10;99.90
14119;DHT22;7138;49.246;9.100;2023-03-15T04:05:08;-0.20;99.90
14119;DHT22;7138;49.246;9.100;2023-03-15T04:07:33;-0.20;99.90
14119;DHT22;7138;49.246;9.100;2023-03-15T04:10:00;-0.30;99.90
14119;DHT22;7138;49.246;9.100;2023-03-15T04:12:26;-0.30;99.90
14119;DHT22;7138;49.246;9.100;2023-03-15T04:14:52;-0.40;99.90
14119;DHT22;7138;49.246;9.100;2023-03-15T04:17:18;-0.50;99.90
14119;DHT22;7138;49.246;9.100;2023-03-15T04:19:44;-0.50;99.90
14119;DHT22;7138;49.246;9.100;2023-03-15T04:22:12;-0.50;99.90
14119;DHT22;7138;49.246;9.100;2023-03-15T04:24:39;-0.50;99.90
14119;DHT22;7138;49.246;9.100;2023-03-15T04:27:06;-0.50;99.90
14119;DHT22;7138;49.246;9.100;2023-03-15T04:29:32;-0.50;99.90
14119;DHT22;7138;49.246;9.100;2023-03-15T04:31:58;-0.50;99.90
14119;DHT22;7138;49.246;9.100;2023-03-15T04:34:26;-0.50;99.90
14119;DHT22;7138;49.246;9.100;2023-03-15T04:36:53;-0.40;99.90
14119;DHT22;7138;49.246;9.100;2023-03-15T04:39:19;-0.40;99.90
14119;DHT22;7138;49.246;9.100;2023-03-15T04:41:44;-0.50;99.90
14119;DHT22;7138;49.246;9.100;2023-03-15T04:44:12;-0.50;99.90
14119;DHT22;7138;49.246;9.100;2023-03-15T04:46:40;-0.60;99.90
14119;DHT22;7138;49.246;9.100;2023-03-15T04:49:06;-0.50;99.90
14119;DHT22;7138;49.246;9.100;2023-03-15T04:51:31;-0.50;99.90
14119;DHT22;7138;49.246;9.100;2023-03-15T04:53:58;-0.50;99.90
14119;DHT22;7138;49.246;9.100;2023-03-15T04:56:24;-0.60;99.90
14119;DHT22;7138;49.246;9.100;2023-03-15T04:58:50;-0.40;99.90
14119;DHT22;7138;49.246;9.100;2023-03-15T05:01:17;-0.50;99.90
14119;DHT22;7138;49.246;9.100;2023-03-15T05:03:43;-0.40;99.90
14119;DHT22;7138;49.246;9.100;2023-03-15T05:06:08;-0.50;99.90
14119;DHT22;7138;49.246;9.100;2023-03-15T05:08:34;-0.60;99.90
14119;DHT22;7138;49.246;9.100;2023-03-15T05:11:00;-0.50;99.90
14119;DHT22;7138;49.246;9.100;2023-03-15T05:13:27;-0.60;99.90
14119;DHT22;7138;49.246;9.100;2023-03-15T05:15:52;-0.50;99.90
14119;DHT22;7138;49.246;9.100;2023-03-15T05:18:19;-0.50;99.90
14119;DHT22;7138;49.246;9.100;2023-03-15T05:20:46;-0.60;99.90
14119;DHT22;7138;49.246;9.100;2023-03-15T05:23:12;-0.60;99.90
14119;DHT22;7138;49.246;9.100;2023-03-15T05:25:38;-0.50;99.90
14119;DHT22;7138;49.246;9.100;2023-03-15T05:28:04;-0.60;99.90
14119;DHT22;7138;49.246;9.100;2023-03-15T05:30:29;-0.60;99.90
14119;DHT22;7138;49.246;9.100;2023-03-15T05:32:55;-0.60;99.90
14119;DHT22;7138;49.246;9.100;2023-03-15T05:35:22;-0.60;99.90
14119;DHT22;7138;49.246;9.100;2023-03-15T05:37:50;-0.60;99.90
14119;DHT22;7138;49.246;9.100;2023-03-15T05:40:16;-0.70;99.90
14119;DHT22;7138;49.246;9.100;2023-03-15T05:42:42;-0.60;99.90
14119;DHT22;7138;49.246;9.100;2023-03-15T05:45:08;-0.50;99.90
14119;DHT22;7138;49.246;9.100;2023-03-15T05:47:34;-0.50;99.90
14119;DHT22;7138;49.246;9.100;2023-03-15T05:50:00;-0.40;99.90
14119;DHT22;7138;49.246;9.100;2023-03-15T05:52:27;-0.40;99.90
14119;DHT22;7138;49.246;9.100;2023-03-15T05:54:53;-0.30;99.90
14119;DHT22;7138;49.246;9.100;2023-03-15T05:57:18;-0.20;99.90
14119;DHT22;7138;49.246;9.100;2023-03-15T05:59:44;-0.20;99.90
14119;DHT22;7138;49.246;9.100;2023-03-15T06:02:10;-0.10;99.90
14119;DHT22;7138;49.246;9.100;2023-03-15T06:04:35;-0.10;99.90
14119;DHT22;7138;49.246;9.100;2023-03-15T06:07:02;0.10;99.90
14119;DHT22;7138;49.246;9.100;2023-03-15T06:09:29;0.30;99.90
14119;DHT22;7138;49.246;9.100;2023-03-15T06:11:55;0.50;99.90
14119;DHT22;7138;49.246;9.100;2023-03-15T06:14:21;1.00;99.90
14119;DHT22;7138;49.246;9.100;2023-03-15T06:16:47;1.40;99.90
14119;DHT22;7138;49.246;9.100;2023-03-15T06:19:13;2.10;99.90
14119;DHT22;7138;49.246;9.100;2023-03-15T06:21:38;2.70;99.90
14119;DHT22;7138;49.246;9.100;2023-03-15T06:24:04;2.80;99.90
14119;DHT22;7138;49.246;9.100;2023-03-15T06:26:32;2.40;99.90
14119;DHT22;7138;49.246;9.100;2023-03-15T06:28:58;1.90;99.90
14119;DHT22;7138;49.246;9.100;2023-03-15T06:31:23;1.60;99.90
14119;DHT22;7138;49.246;9.100;2023-03-15T06:33:49;1.50;99.90
14119;DHT22;7138;49.246;9.100;2023-03-15T06:36:14;1.70;99.90
14119;DHT22;7138;49.246;9.100;2023-03-15T06:38:40;1.70;99.90
14119;DHT22;7138;49.246;9.100;2023-03-15T06:41:06;1.80;99.90
14119;DHT22;7138;49.246;9.100;2023-03-15T06:43:34;1.80;99.90
14119;DHT22;7138;49.246;9.100;2023-03-15T06:45:59;1.90;99.90
14119;DHT22;7138;49.246;9.100;2023-03-15T06:48:25;1.90;99.90
14119;DHT22;7138;49.246;9.100;2023-03-15T06:50:51;2.10;99.90
14119;DHT22;7138;49.246;9.100;2023-03-15T06:53:17;2.40;99.90
14119;DHT22;7138;49.246;9.100;2023-03-15T06:55:43;2.60;99.90
14119;DHT22;7138;49.246;9.100;2023-03-15T06:58:09;2.60;99.90
14119;DHT22;7138;49.246;9.100;2023-03-15T07:00:36;2.50;99.90
14119;DHT22;7138;49.246;9.100;2023-03-15T07:03:02;2.50;99.90
14119;DHT22;7138;49.246;9.100;2023-03-15T07:05:28;2.70;99.90
14119;DHT22;7138;49.246;9.100;2023-03-15T07:07:54;2.40;99.90
14119;DHT22;7138;49.246;9.100;2023-03-15T07:10:19;1.90;99.90
14119;DHT22;7138;49.246;9.100;2023-03-15T07:12:45;1.90;99.90
14119;DHT22;7138;49.246;9.100;2023-03-15T07:15:11;1.90;99.90
14119;DHT22;7138;49.246;9.100;2023-03-15T07:17:38;2.20;99.90
14119;DHT22;7138;49.246;9.100;2023-03-15T07:20:05;2.40;99.90
14119;DHT22;7138;49.246;9.100;2023-03-15T07:22:31;2.60;99.90
14119;DHT22;7138;49.246;9.100;2023-03-15T07:24:57;2.70;99.90
14119;DHT22;7138;49.246;9.100;2023-03-15T07:27:23;2.50;99.90
14119;DHT22;7138;49.246;9.100;2023-03-15T07:29:49;2.40;99.90
14119;DHT22;7138;49.246;9.100;2023-03-15T07:32:14;2.60;99.90
14119;DHT22;7138;49.246;9.100;2023-03-15T07:34:42;2.90;99.90
14119;DHT22;7138;49.246;9.100;2023-03-15T07:37:08;3.00;99.90
14119;DHT22;7138;49.246;9.100;2023-03-15T07:39:34;3.10;99.90
14119;DHT22;7138;49.246;9.100;2023-03-15T07:41:59;3.10;99.90
14119;DHT22;7138;49.246;9.100;2023-03-15T07:44:25;3.30;99.90
14119;DHT22;7138;49.246;9.100;2023-03-15T07:46:51;3.50;99.90
14119;DHT22;7138;49.246;9.100;2023-03-15T07:49:17;3.80;99.90
14119;DHT22;7138;49.246;9.100;2023-03-15T07:51:44;4.10;99.90
14119;DHT22;7138;49.246;9.100;2023-03-15T07:54:09;3.80;99.90
14119;DHT22;7138;49.246;9.100;2023-03-15T07:56:35;3.90;99.90
14119;DHT22;7138;49.246;9.100;2023-03-15T07:59:01;3.80;99.90
14119;DHT22;7138;49.246;9.100;2023-03-15T08:01:26;3.70;99.90
14119;DHT22;7138;49.246;9.100;2023-03-15T08:03:52;3.70;99.90
14119;DHT22;7138;49.246;9.100;2023-03-15T08:06:18;3.40;99.90
14119;DHT22;7138;49.246;9.100;2023-03-15T08:08:45;3.50;99.90
14119;DHT22;7138;49.246;9.100;2023-03-15T08:11:11;3.80;99.90
14119;DHT22;7138;49.246;9.100;2023-03-15T08:13:37;4.20;99.90
14119;DHT22;7138;49.246;9.100;2023-03-15T08:16:02;4.60;99.90
14119;DHT22;7138;49.246;9.100;2023-03-15T08:18:28;4.00;99.90
14119;DHT22;7138;49.246;9.100;2023-03-15T08:20:54;3.80;99.90
14119;DHT22;7138;49.246;9.100;2023-03-15T08:23:20;3.70;99.90
14119;DHT22;7138;49.246;9.100;2023-03-15T08:25:48;3.40;99.90
14119;DHT22;7138;49.246;9.100;2023-03-15T08:28:14;3.30;99.90
14119;DHT22;7138;49.246;9.100;2023-03-15T08:30:40;3.40;99.90
14119;DHT22;7138;49.246;9.100;2023-03-15T08:33:05;3.60;99.90
14119;DHT22;7138;49.246;9.100;2023-03-15T08:35:31;3.70;99.90
14119;DHT22;7138;49.246;9.100;2023-03-15T08:37:58;3.90;99.90
14119;DHT22;7138;49.246;9.100;2023-03-15T08:40:24;4.00;99.90
14119;DHT22;7138;49.246;9.100;2023-03-15T08:42:51;4.00;99.90
14119;DHT22;7138;49.246;9.100;2023-03-15T08:45:18;3.90;99.90
14119;DHT22;7138;49.246;9.100;2023-03-15T08:47:44;3.90;99.90
14119;DHT22;7138;49.246;9.100;2023-03-15T08:50:10;3.80;99.90
14119;DHT22;7138;49.246;9.100;2023-03-15T08:52:37;3.40;99.90
14119;DHT22;7138;49.246;9.100;2023-03-15T08:55:04;3.20;99.90
14119;DHT22;7138;49.246;9.100;2023-03-15T08:57:30;3.20;99.90
14119;DHT22;7138;49.246;9.100;2023-03-15T08:59:58;3.40;99.90
14119;DHT22;7138;49.246;9.100;2023-03-15T09:02:26;3.60;99.90
14119;DHT22;7138;49.246;9.100;2023-03-15T09:04:51;4.40;99.90
14119;DHT22;7138;49.246;9.100;2023-03-15T09:07:17;4.60;99.90
14119;DHT22;7138;49.246;9.100;2023-03-15T09:09:43;4.30;99.90
14119;DHT22;7138;49.246;9.100;2023-03-15T09:12:12;4.30;99.90
14119;DHT22;7138;49.246;9.100;2023-03-15T09:14:39;4.20;99.90
14119;DHT22;7138;49.246;9.100;2023-03-15T09:17:06;4.10;99.90
14119;DHT22;7138;49.246;9.100;2023-03-15T09:19:32;4.10;99.90
14119;DHT22;7138;49.246;9.100;2023-03-15T09:21:57;4.00;99.90
14119;DHT22;7138;49.246;9.100;2023-03-15T09:24:23;4.10;99.90
14119;DHT22;7138;49.246;9.100;2023-03-15T09:26:49;4.10;99.90
14119;DHT22;7138;49.246;9.100;2023-03-15T09:29:14;3.90;99.90
14119;DHT22;7138;49.246;9.100;2023-03-15T09:31:40;3.80;99.90
14119;DHT22;7138;49.246;9.100;2023-03-15T09:34:07;3.70;99.90
14119;DHT22;7138;49.246;9.100;2023-03-15T09:36:33;3.50;99.90
14119;DHT22;7138;49.246;9.100;2023-03-15T09:38:58;3.10;99.90
14119;DHT22;7138;49.246;9.100;2023-03-15T09:41:29;3.00;99.90
14119;DHT22;7138;49.246;9.100;2023-03-15T09:44:24;2.90;99.90
14119;DHT22;7138;49.246;9.100;2023-03-15T09:47:00;3.10;99.90
14119;DHT22;7138;49.246;9.100;2023-03-15T09:49:38;3.20;99.90
14119;DHT22;7138;49.246;9.100;2023-03-15T09:52:10;3.30;99.90
14119;DHT22;7138;49.246;9.100;2023-03-15T09:54:42;3.40;99.90
14119;DHT22;7138;49.246;9.100;2023-03-15T09:57:13;3.20;99.90
14119;DHT22;7138;49.246;9.100;2023-03-15T09:59:44;3.20;99.90
14119;DHT22;7138;49.246;9.100;2023-03-15T10:02:15;3.10;99.90
14119;DHT22;7138;49.246;9.100;2023-03-15T10:04:47;3.00;99.90
14119;DHT22;7138;49.246;9.100;2023-03-15T10:07:15;3.00;99.90
14119;DHT22;7138;49.246;9.100;2023-03-15T10:09:41;2.90;99.90
14119;DHT22;7138;49.246;9.100;2023-03-15T10:12:08;2.80;99.90
14119;DHT22;7138;49.246;9.100;2023-03-15T10:14:48;2.90;99.90
14119;DHT22;7138;49.246;9.100;2023-03-15T10:17:23;2.90;99.90
14119;DHT22;7138;49.246;9.100;2023-03-15T10:20:02;2.90;99.90
14119;DHT22;7138;49.246;9.100;2023-03-15T10:22:35;3.10;99.90
14119;DHT22;7138;49.246;9.100;2023-03-15T10:25:10;3.10;99.90
14119;DHT22;7138;49.246;9.100;2023-03-15T10:27:40;3.20;99.90
14119;DHT22;7138;49.246;9.100;2023-03-15T10:30:12;3.40;99.90
14119;DHT22;7138;49.246;9.100;2023-03-15T10:32:42;3.50;99.90
14119;DHT22;7138;49.246;9.100;2023-03-15T10:35:12;3.00;99.90
14119;DHT22;7138;49.246;9.100;2023-03-15T10:37:39;2.90;99.90
14119;DHT22;7138;49.246;9.100;2023-03-15T10:40:07;2.80;99.90
14119;DHT22;7138;49.246;9.100;2023-03-15T10:42:40;2.70;99.90
14119;DHT22;7138;49.246;9.100;2023-03-15T10:45:13;2.70;99.90
14119;DHT22;7138;49.246;9.100;2023-03-15T10:47:45;2.70;99.90
14119;DHT22;7138;49.246;9.100;2023-03-15T10:50:17;2.80;99.90
14119;DHT22;7138;49.246;9.100;2023-03-15T10:52:55;3.00;99.90
14119;DHT22;7138;49.246;9.100;2023-03-15T10:55:27;3.00;99.90
14119;DHT22;7138;49.246;9.100;2023-03-15T10:57:57;2.80;99.90
14119;DHT22;7138;49.246;9.100;2023-03-15T11:00:26;2.80;99.90
14119;DHT22;7138;49.246;9.100;2023-03-15T11:03:00;2.90;99.90
14119;DHT22;7138;49.246;9.100;2023-03-15T11:05:29;3.00;99.90
14119;DHT22;7138;49.246;9.100;2023-03-15T11:07:57;3.10;99.90
14119;DHT22;7138;49.246;9.100;2023-03-15T11:10:25;3.40;99.90
14119;DHT22;7138;49.246;9.100;2023-03-15T11:15:34;3.50;99.90
14119;DHT22;7138;49.246;9.100;2023-03-15T11:17:59;3.30;99.90
14119;DHT22;7138;49.246;9.100;2023-03-15T11:20:25;3.40;99.90
14119;DHT22;7138;49.246;9.100;2023-03-15T11:22:59;3.50;99.90
14119;DHT22;7138;49.246;9.100;2023-03-15T11:25:37;3.50;99.90
14119;DHT22;7138;49.246;9.100;2023-03-15T11:28:03;3.60;99.90
14119;DHT22;7138;49.246;9.100;2023-03-15T11:30:30;3.60;99.90
14119;DHT22;7138;49.246;9.100;2023-03-15T11:32:56;3.50;99.90
14119;DHT22;7138;49.246;9.100;2023-03-15T11:35:27;3.80;99.90
14119;DHT22;7138;49.246;9.100;2023-03-15T11:38:00;3.70;99.90
14119;DHT22;7138;49.246;9.100;2023-03-15T11:40:36;3.70;99.90
14119;DHT22;7138;49.246;9.100;2023-03-15T11:43:05;3.60;99.90
14119;DHT22;7138;49.246;9.100;2023-03-15T11:45:38;3.80;99.90
14119;DHT22;7138;49.246;9.100;2023-03-15T11:48:10;3.80;99.90
14119;DHT22;7138;49.246;9.100;2023-03-15T11:50:40;3.60;99.90
14119;DHT22;7138;49.246;9.100;2023-03-15T11:53:08;3.60;99.90
14119;DHT22;7138;49.246;9.100;2023-03-15T11:55:36;3.50;99.90
14119;DHT22;7138;49.246;9.100;2023-03-15T12:00:53;4.00;99.90
14119;DHT22;7138;49.246;9.100;2023-03-15T12:03:27;4.10;99.90
14119;DHT22;7138;49.246;9.100;2023-03-15T12:05:58;4.40;99.90
14119;DHT22;7138;49.246;9.100;2023-03-15T12:08:40;4.60;99.90
14119;DHT22;7138;49.246;9.100;2023-03-15T12:11:11;5.00;99.90
14119;DHT22;7138;49.246;9.100;2023-03-15T12:13:38;5.60;99.90
14119;DHT22;7138;49.246;9.100;2023-03-15T12:16:16;5.40;99.90
14119;DHT22;7138;49.246;9.100;2023-03-15T12:18:45;5.30;99.90
14119;DHT22;7138;49.246;9.100;2023-03-15T12:21:15;4.80;99.90
14119;DHT22;7138;49.246;9.100;2023-03-15T12:23:47;4.70;99.90
14119;DHT22;7138;49.246;9.100;2023-03-15T12:26:23;4.60;99.90
14119;DHT22;7138;49.246;9.100;2023-03-15T12:28:52;4.70;99.90
14119;DHT22;7138;49.246;9.100;2023-03-15T12:31:41;4.80;99.90
14119;DHT22;7138;49.246;9.100;2023-03-15T12:34:11;4.80;99.90
14119;DHT22;7138;49.246;9.100;2023-03-15T12:36:40;4.60;99.90
14119;DHT22;7138;49.246;9.100;2023-03-15T12:39:34;4.60;99.90
14119;DHT22;7138;49.246;9.100;2023-03-15T12:42:12;4.50;99.90
14119;DHT22;7138;49.246;9.100;2023-03-15T12:44:53;4.50;99.90
14119;DHT22;7138;49.246;9.100;2023-03-15T12:47:19;4.50;99.90
14119;DHT22;7138;49.246;9.100;2023-03-15T12:49:45;4.60;99.90
14119;DHT22;7138;49.246;9.100;2023-03-15T12:52:27;4.40;99.90
14119;DHT22;7138;49.246;9.100;2023-03-15T12:55:06;4.40;99.90
14119;DHT22;7138;49.246;9.100;2023-03-15T12:57:44;4.50;99.90
14119;DHT22;7138;49.246;9.100;2023-03-15T13:00:12;4.50;99.90
14119;DHT22;7138;49.246;9.100;2023-03-15T13:02:43;4.50;99.90
14119;DHT22;7138;49.246;9.100;2023-03-15T13:05:14;4.50;99.90
14119;DHT22;7138;49.246;9.100;2023-03-15T13:07:46;4.70;99.90
14119;DHT22;7138;49.246;9.100;2023-03-15T13:13:21;4.30;99.90
14119;DHT22;7138;49.246;9.100;2023-03-15T13:16:05;4.20;99.90
14119;DHT22;7138;49.246;9.100;2023-03-15T13:18:52;4.10;99.90
14119;DHT22;7138;49.246;9.100;2023-03-15T13:21:25;3.90;99.90
14119;DHT22;7138;49.246;9.100;2023-03-15T13:23:55;3.90;99.90
14119;DHT22;7138;49.246;9.100;2023-03-15T13:26:26;3.80;99.90
14119;DHT22;7138;49.246;9.100;2023-03-15T13:29:02;3.50;99.90
14119;DHT22;7138;49.246;9.100;2023-03-15T13:31:34;3.00;99.90
14119;DHT22;7138;49.246;9.100;2023-03-15T13:34:04;2.60;99.90
14119;DHT22;7138;49.246;9.100;2023-03-15T13:36:40;2.50;99.90
14119;DHT22;7138;49.246;9.100;2023-03-15T13:39:09;2.30;99.90
14119;DHT22;7138;49.246;9.100;2023-03-15T13:41:43;2.30;99.90
14119;DHT22;7138;49.246;9.100;2023-03-15T13:44:12;2.40;99.90
14119;DHT22;7138;49.246;9.100;2023-03-15T13:46:42;2.50;99.90
14119;DHT22;7138;49.246;9.100;2023-03-15T13:49:08;2.70;99.90
14119;DHT22;7138;49.246;9.100;2023-03-15T13:51:37;3.00;99.90
14119;DHT22;7138;49.246;9.100;2023-03-15T13:54:04;3.20;99.90
14119;DHT22;7138;49.246;9.100;2023-03-15T13:56:35;3.50;99.90
14119;DHT22;7138;49.246;9.100;2023-03-15T13:59:03;3.60;99.90
14119;DHT22;7138;49.246;9.100;2023-03-15T14:01:30;3.90;99.90
14119;DHT22;7138;49.246;9.100;2023-03-15T14:04:01;4.10;99.90
14119;DHT22;7138;49.246;9.100;2023-03-15T14:06:31;4.60;99.90
14119;DHT22;7138;49.246;9.100;2023-03-15T14:08:58;4.80;99.90
14119;DHT22;7138;49.246;9.100;2023-03-15T14:11:35;5.00;99.90
14119;DHT22;7138;49.246;9.100;2023-03-15T14:14:12;5.20;99.90
14119;DHT22;7138;49.246;9.100;2023-03-15T14:16:45;5.10;99.90
14119;DHT22;7138;49.246;9.100;2023-03-15T14:19:15;5.00;99.90
14119;DHT22;7138;49.246;9.100;2023-03-15T14:21:43;5.50;99.90
14119;DHT22;7138;49.246;9.100;2023-03-15T14:24:13;5.70;99.90
14119;DHT22;7138;49.246;9.100;2023-03-15T14:26:41;5.50;99.90
14119;DHT22;7138;49.246;9.100;2023-03-15T14:29:14;5.20;99.90
14119;DHT22;7138;49.246;9.100;2023-03-15T14:31:45;5.30;99.90
14119;DHT22;7138;49.246;9.100;2023-03-15T14:34:15;5.90;99.90
14119;DHT22;7138;49.246;9.100;2023-03-15T14:36:48;6.30;99.90
14119;DHT22;7138;49.246;9.100;2023-03-15T14:39:16;6.20;99.90
14119;DHT22;7138;49.246;9.100;2023-03-15T14:41:43;6.00;99.90
14119;DHT22;7138;49.246;9.100;2023-03-15T14:44:09;5.80;99.90
14119;DHT22;7138;49.246;9.100;2023-03-15T14:46:36;6.10;99.90
14119;DHT22;7138;49.246;9.100;2023-03-15T14:49:02;5.80;99.90
14119;DHT22;7138;49.246;9.100;2023-03-15T14:51:28;5.40;99.90
14119;DHT22;7138;49.246;9.100;2023-03-15T14:53:55;5.40;99.90
14119;DHT22;7138;49.246;9.100;2023-03-15T14:56:23;5.50;99.90
14119;DHT22;7138;49.246;9.100;2023-03-15T14:58:49;5.70;99.90
14119;DHT22;7138;49.246;9.100;2023-03-15T15:01:19;6.10;99.90
14119;DHT22;7138;49.246;9.100;2023-03-15T15:03:48;6.20;99.90
14119;DHT22;7138;49.246;9.100;2023-03-15T15:06:17;6.00;99.90
14119;DHT22;7138;49.246;9.100;2023-03-15T15:08:43;5.80;99.90
14119;DHT22;7138;49.246;9.100;2023-03-15T15:11:11;5.80;99.90
14119;DHT22;7138;49.246;9.100;2023-03-15T15:13:37;5.90;99.90
14119;DHT22;7138;49.246;9.100;2023-03-15T15:16:04;6.10;99.90
14119;DHT22;7138;49.246;9.100;2023-03-15T15:18:31;6.20;99.90
14119;DHT22;7138;49.246;9.100;2023-03-15T15:21:01;6.20;99.90
14119;DHT22;7138;49.246;9.100;2023-03-15T15:23:32;6.10;99.90
14119;DHT22;7138;49.246;9.100;2023-03-15T15:26:01;6.10;99.90
14119;DHT22;7138;49.246;9.100;2023-03-15T15:28:29;6.50;99.90
14119;DHT22;7138;49.246;9.100;2023-03-15T15:30:56;6.30;99.90
14119;DHT22;7138;49.246;9.100;2023-03-15T15:33:22;6.30;99.90
14119;DHT22;7138;49.246;9.100;2023-03-15T15:35:48;6.20;99.90
14119;DHT22;7138;49.246;9.100;2023-03-15T15:38:16;6.00;99.90
14119;DHT22;7138;49.246;9.100;2023-03-15T15:40:41;6.00;99.90
14119;DHT22;7138;49.246;9.100;2023-03-15T15:43:08;6.10;99.90
14119;DHT22;7138;49.246;9.100;2023-03-15T15:45:36;6.00;99.90
14119;DHT22;7138;49.246;9.100;2023-03-15T15:48:01;5.80;99.90
14119;DHT22;7138;49.246;9.100;2023-03-15T15:50:30;5.50;99.90
14119;DHT22;7138;49.246;9.100;2023-03-15T15:52:57;5.60;99.90
14119;DHT22;7138;49.246;9.100;2023-03-15T15:55:27;5.60;99.90
14119;DHT22;7138;49.246;9.100;2023-03-15T15:57:55;5.60;99.90
14119;DHT22;7138;49.246;9.100;2023-03-15T16:00:22;5.40;99.90
14119;DHT22;7138;49.246;9.100;2023-03-15T16:02:49;5.40;99.90
14119;DHT22;7138;49.246;9.100;2023-03-15T16:05:16;5.30;99.90
14119;DHT22;7138;49.246;9.100;2023-03-15T16:07:42;5.30;99.90
14119;DHT22;7138;49.246;9.100;2023-03-15T16:10:11;5.00;99.90
14119;DHT22;7138;49.246;9.100;2023-03-15T16:12:43;4.80;99.90
14119;DHT22;7138;49.246;9.100;2023-03-15T16:15:14;4.60;99.90